Terminal Aerodrome Forecast
Issued by NWS Brownsville, TX

Home | Current Version | Previous Version | Text Only | Print | Product List | Glossary On
Versions: 1 2 3 4 5 6 7 8 9 10 11 12 13 14 15 16 17 18 19 20 21 22 23 24 25 26 27
000
FTUS44 KBRO 142300
TAFBRO
TAF
KBRO 142337Z 1500/1524 05006KT P6SM SCT025 SCT040
     FM150600 03005KT P6SM BKN020
      TEMPO 1506/1510 BKN015
     FM151700 07010KT P6SM VCSH SCT035
     FM152300 05006KT P6SM BKN080=

USA.gov is the U.S. government's official web portal to all federal, state and local government web resources and services.